sensor_id;sensor_type;location;lat;lon;timestamp;temperature;humidity
3310;DHT22;1667;53.238;10.394;2022-11-15T00:00:02;10.00;99.90
3310;DHT22;1667;53.238;10.394;2022-11-15T00:05:19;10.10;99.90
3310;DHT22;1667;53.238;10.394;2022-11-15T00:10:36;10.00;99.90
3310;DHT22;1667;53.238;10.394;2022-11-15T00:15:56;10.10;99.90
3310;DHT22;1667;53.238;10.394;2022-11-15T00:21:14;10.10;99.90
3310;DHT22;1667;53.238;10.394;2022-11-15T00:26:31;10.10;99.90
3310;DHT22;1667;53.238;10.394;2022-11-15T00:31:49;10.10;99.90
3310;DHT22;1667;53.238;10.394;2022-11-15T00:37:06;10.10;99.90
3310;DHT22;1667;53.238;10.394;2022-11-15T00:42:22;10.10;99.90
3310;DHT22;1667;53.238;10.394;2022-11-15T00:47:40;10.10;99.90
3310;DHT22;1667;53.238;10.394;2022-11-15T00:52:59;10.10;99.90
3310;DHT22;1667;53.238;10.394;2022-11-15T00:58:16;10.10;99.90
3310;DHT22;1667;53.238;10.394;2022-11-15T01:03:34;10.10;99.90
3310;DHT22;1667;53.238;10.394;2022-11-15T01:08:50;10.10;99.90
3310;DHT22;1667;53.238;10.394;2022-11-15T01:14:07;10.00;99.90
3310;DHT22;1667;53.238;10.394;2022-11-15T01:19:25;10.00;99.90
3310;DHT22;1667;53.238;10.394;2022-11-15T01:24:41;10.00;99.90
3310;DHT22;1667;53.238;10.394;2022-11-15T01:29:58;10.00;99.90
3310;DHT22;1667;53.238;10.394;2022-11-15T01:35:16;10.00;99.90
3310;DHT22;1667;53.238;10.394;2022-11-15T01:40:33;9.90;99.90
3310;DHT22;1667;53.238;10.394;2022-11-15T01:45:52;9.80;99.90
3310;DHT22;1667;53.238;10.394;2022-11-15T01:51:12;9.80;99.90
3310;DHT22;1667;53.238;10.394;2022-11-15T01:56:33;9.80;99.90
3310;DHT22;1667;53.238;10.394;2022-11-15T02:01:52;10.10;99.90
3310;DHT22;1667;53.238;10.394;2022-11-15T02:07:12;9.80;99.90
3310;DHT22;1667;53.238;10.394;2022-11-15T02:12:30;9.80;99.90
3310;DHT22;1667;53.238;10.394;2022-11-15T02:18:01;9.80;99.90
3310;DHT22;1667;53.238;10.394;2022-11-15T02:29:11;9.80;99.90
3310;DHT22;1667;53.238;10.394;2022-11-15T02:34:40;9.70;99.90
3310;DHT22;1667;53.238;10.394;2022-11-15T02:40:03;9.80;99.90
3310;DHT22;1667;53.238;10.394;2022-11-15T02:45:26;9.70;99.90
3310;DHT22;1667;53.238;10.394;2022-11-15T02:50:45;9.70;99.90
3310;DHT22;1667;53.238;10.394;2022-11-15T02:56:02;9.70;99.90
3310;DHT22;1667;53.238;10.394;2022-11-15T03:01:30;9.70;99.90
3310;DHT22;1667;53.238;10.394;2022-11-15T03:07:00;9.80;99.90
3310;DHT22;1667;53.238;10.394;2022-11-15T03:12:24;9.50;99.90
3310;DHT22;1667;53.238;10.394;2022-11-15T03:17:45;9.60;99.90
3310;DHT22;1667;53.238;10.394;2022-11-15T03:23:06;9.50;99.90
3310;DHT22;1667;53.238;10.394;2022-11-15T03:28:28;9.90;99.90
3310;DHT22;1667;53.238;10.394;2022-11-15T03:33:49;9.60;99.90
3310;DHT22;1667;53.238;10.394;2022-11-15T03:39:08;9.60;99.90
3310;DHT22;1667;53.238;10.394;2022-11-15T03:44:36;9.50;99.90
3310;DHT22;1667;53.238;10.394;2022-11-15T03:50:00;9.60;99.90
3310;DHT22;1667;53.238;10.394;2022-11-15T03:55:20;9.80;99.90
3310;DHT22;1667;53.238;10.394;2022-11-15T04:00:37;9.50;99.90
3310;DHT22;1667;53.238;10.394;2022-11-15T04:05:53;9.50;99.90
3310;DHT22;1667;53.238;10.394;2022-11-15T04:11:11;9.50;99.90
3310;DHT22;1667;53.238;10.394;2022-11-15T04:16:28;9.50;99.90
3310;DHT22;1667;53.238;10.394;2022-11-15T04:21:44;9.50;99.90
3310;DHT22;1667;53.238;10.394;2022-11-15T04:27:19;9.50;99.90
3310;DHT22;1667;53.238;10.394;2022-11-15T04:32:36;9.50;99.90
3310;DHT22;1667;53.238;10.394;2022-11-15T04:37:53;9.50;99.90
3310;DHT22;1667;53.238;10.394;2022-11-15T04:43:11;9.50;99.90
3310;DHT22;1667;53.238;10.394;2022-11-15T04:48:28;9.50;99.90
3310;DHT22;1667;53.238;10.394;2022-11-15T04:53:44;9.50;99.90
3310;DHT22;1667;53.238;10.394;2022-11-15T04:59:02;9.40;99.90
3310;DHT22;1667;53.238;10.394;2022-11-15T05:04:19;9.30;99.90
3310;DHT22;1667;53.238;10.394;2022-11-15T05:09:36;9.40;99.90
3310;DHT22;1667;53.238;10.394;2022-11-15T05:14:54;9.40;99.90
3310;DHT22;1667;53.238;10.394;2022-11-15T05:20:11;9.40;99.90
3310;DHT22;1667;53.238;10.394;2022-11-15T05:25:28;9.40;99.90
3310;DHT22;1667;53.238;10.394;2022-11-15T05:30:46;9.40;99.90
3310;DHT22;1667;53.238;10.394;2022-11-15T05:36:06;9.40;99.90
3310;DHT22;1667;53.238;10.394;2022-11-15T05:41:27;9.40;99.90
3310;DHT22;1667;53.238;10.394;2022-11-15T05:46:47;9.40;99.90
3310;DHT22;1667;53.238;10.394;2022-11-15T05:52:05;9.40;99.90
3310;DHT22;1667;53.238;10.394;2022-11-15T05:57:24;9.40;99.90
3310;DHT22;1667;53.238;10.394;2022-11-15T06:02:41;9.50;99.90
3310;DHT22;1667;53.238;10.394;2022-11-15T06:07:58;9.50;99.90
3310;DHT22;1667;53.238;10.394;2022-11-15T06:13:15;9.50;99.90
3310;DHT22;1667;53.238;10.394;2022-11-15T06:18:33;9.60;99.90
3310;DHT22;1667;53.238;10.394;2022-11-15T06:23:50;9.70;99.90
3310;DHT22;1667;53.238;10.394;2022-11-15T06:29:07;9.80;99.90
3310;DHT22;1667;53.238;10.394;2022-11-15T06:34:25;9.60;99.90
3310;DHT22;1667;53.238;10.394;2022-11-15T06:39:41;9.70;99.90
3310;DHT22;1667;53.238;10.394;2022-11-15T06:44:58;9.70;99.90
3310;DHT22;1667;53.238;10.394;2022-11-15T06:50:16;9.60;99.90
3310;DHT22;1667;53.238;10.394;2022-11-15T06:55:33;9.70;99.90
3310;DHT22;1667;53.238;10.394;2022-11-15T07:00:50;9.70;99.90
3310;DHT22;1667;53.238;10.394;2022-11-15T07:06:09;9.80;99.90
3310;DHT22;1667;53.238;10.394;2022-11-15T07:11:26;9.80;99.90
3310;DHT22;1667;53.238;10.394;2022-11-15T07:16:42;9.80;99.90
3310;DHT22;1667;53.238;10.394;2022-11-15T07:22:00;9.90;99.90
3310;DHT22;1667;53.238;10.394;2022-11-15T07:27:17;9.90;99.90
3310;DHT22;1667;53.238;10.394;2022-11-15T07:32:34;10.00;99.90
3310;DHT22;1667;53.238;10.394;2022-11-15T07:37:56;10.00;99.90
3310;DHT22;1667;53.238;10.394;2022-11-15T07:43:13;10.00;99.90
3310;DHT22;1667;53.238;10.394;2022-11-15T07:48:30;10.10;99.90
3310;DHT22;1667;53.238;10.394;2022-11-15T07:54:00;10.10;99.90
3310;DHT22;1667;53.238;10.394;2022-11-15T07:59:17;10.10;99.90
3310;DHT22;1667;53.238;10.394;2022-11-15T08:04:34;10.20;99.90
3310;DHT22;1667;53.238;10.394;2022-11-15T08:09:52;10.20;99.90
3310;DHT22;1667;53.238;10.394;2022-11-15T08:15:10;10.30;99.90
3310;DHT22;1667;53.238;10.394;2022-11-15T08:20:27;10.40;99.90
3310;DHT22;1667;53.238;10.394;2022-11-15T08:25:46;10.80;99.90
3310;DHT22;1667;53.238;10.394;2022-11-15T08:31:03;10.50;99.90
3310;DHT22;1667;53.238;10.394;2022-11-15T08:36:20;10.60;99.90
3310;DHT22;1667;53.238;10.394;2022-11-15T08:41:38;10.60;99.90
3310;DHT22;1667;53.238;10.394;2022-11-15T08:46:55;10.60;99.90
3310;DHT22;1667;53.238;10.394;2022-11-15T08:52:12;10.70;99.90
3310;DHT22;1667;53.238;10.394;2022-11-15T08:57:31;10.70;99.90
3310;DHT22;1667;53.238;10.394;2022-11-15T09:02:47;10.80;99.90
3310;DHT22;1667;53.238;10.394;2022-11-15T09:08:04;10.80;99.90
3310;DHT22;1667;53.238;10.394;2022-11-15T09:13:42;10.80;99.90
3310;DHT22;1667;53.238;10.394;2022-11-15T09:18:59;10.80;99.90
3310;DHT22;1667;53.238;10.394;2022-11-15T09:24:16;10.90;99.90
3310;DHT22;1667;53.238;10.394;2022-11-15T09:29:35;10.90;99.90
3310;DHT22;1667;53.238;10.394;2022-11-15T09:34:52;10.90;99.90
3310;DHT22;1667;53.238;10.394;2022-11-15T09:40:11;11.00;99.90
3310;DHT22;1667;53.238;10.394;2022-11-15T09:45:36;11.10;99.90
3310;DHT22;1667;53.238;10.394;2022-11-15T09:50:54;11.20;99.90
3310;DHT22;1667;53.238;10.394;2022-11-15T09:56:00;11.30;99.90
3310;DHT22;1667;53.238;10.394;2022-11-15T10:01:04;11.40;99.90
3310;DHT22;1667;53.238;10.394;2022-11-15T10:06:05;11.50;99.90
3310;DHT22;1667;53.238;10.394;2022-11-15T10:11:07;11.60;99.90
3310;DHT22;1667;53.238;10.394;2022-11-15T10:17:01;11.70;99.90
3310;DHT22;1667;53.238;10.394;2022-11-15T10:22:13;11.80;99.90
3310;DHT22;1667;53.238;10.394;2022-11-15T10:27:14;11.90;99.90
3310;DHT22;1667;53.238;10.394;2022-11-15T10:32:16;12.00;99.90
3310;DHT22;1667;53.238;10.394;2022-11-15T10:37:27;12.00;99.90
3310;DHT22;1667;53.238;10.394;2022-11-15T10:42:27;12.10;99.90
3310;DHT22;1667;53.238;10.394;2022-11-15T10:47:28;12.20;99.90
3310;DHT22;1667;53.238;10.394;2022-11-15T10:52:36;12.30;99.90
3310;DHT22;1667;53.238;10.394;2022-11-15T10:57:37;12.40;99.90
3310;DHT22;1667;53.238;10.394;2022-11-15T11:02:38;12.50;99.90
3310;DHT22;1667;53.238;10.394;2022-11-15T11:07:36;12.60;99.90
3310;DHT22;1667;53.238;10.394;2022-11-15T11:12:34;12.70;99.90
3310;DHT22;1667;53.238;10.394;2022-11-15T11:17:49;12.70;99.90
3310;DHT22;1667;53.238;10.394;2022-11-15T11:23:00;12.80;99.90
3310;DHT22;1667;53.238;10.394;2022-11-15T11:28:17;12.90;99.90
3310;DHT22;1667;53.238;10.394;2022-11-15T11:33:22;13.00;99.90
3310;DHT22;1667;53.238;10.394;2022-11-15T11:38:49;13.00;99.90
3310;DHT22;1667;53.238;10.394;2022-11-15T11:44:02;13.10;99.90
3310;DHT22;1667;53.238;10.394;2022-11-15T11:49:08;13.20;99.90
3310;DHT22;1667;53.238;10.394;2022-11-15T11:54:12;13.30;99.90
3310;DHT22;1667;53.238;10.394;2022-11-15T11:59:19;13.30;99.90
3310;DHT22;1667;53.238;10.394;2022-11-15T12:04:24;13.40;99.90
3310;DHT22;1667;53.238;10.394;2022-11-15T12:09:30;13.40;99.90
3310;DHT22;1667;53.238;10.394;2022-11-15T12:14:41;13.40;99.90
3310;DHT22;1667;53.238;10.394;2022-11-15T12:19:42;13.50;99.90
3310;DHT22;1667;53.238;10.394;2022-11-15T12:24:43;13.50;99.90
3310;DHT22;1667;53.238;10.394;2022-11-15T12:29:45;13.50;99.90
3310;DHT22;1667;53.238;10.394;2022-11-15T12:34:48;13.50;99.90
3310;DHT22;1667;53.238;10.394;2022-11-15T12:40:19;13.50;99.90
3310;DHT22;1667;53.238;10.394;2022-11-15T12:45:26;13.60;99.90
3310;DHT22;1667;53.238;10.394;2022-11-15T12:50:54;13.60;99.90
3310;DHT22;1667;53.238;10.394;2022-11-15T12:56:09;13.70;99.90
3310;DHT22;1667;53.238;10.394;2022-11-15T13:01:07;13.70;99.90
3310;DHT22;1667;53.238;10.394;2022-11-15T13:06:09;13.60;99.90
3310;DHT22;1667;53.238;10.394;2022-11-15T13:11:51;13.70;99.90
3310;DHT22;1667;53.238;10.394;2022-11-15T13:16:57;13.70;99.90
3310;DHT22;1667;53.238;10.394;2022-11-15T13:21:55;13.70;99.90
3310;DHT22;1667;53.238;10.394;2022-11-15T13:27:16;13.70;99.90
3310;DHT22;1667;53.238;10.394;2022-11-15T13:32:16;13.80;99.90
3310;DHT22;1667;53.238;10.394;2022-11-15T13:37:28;13.70;99.90
3310;DHT22;1667;53.238;10.394;2022-11-15T13:42:29;13.70;99.90
3310;DHT22;1667;53.238;10.394;2022-11-15T13:47:28;13.70;99.90
3310;DHT22;1667;53.238;10.394;2022-11-15T13:52:30;13.70;99.90
3310;DHT22;1667;53.238;10.394;2022-11-15T13:57:36;13.70;99.90
3310;DHT22;1667;53.238;10.394;2022-11-15T14:02:37;13.70;99.90
3310;DHT22;1667;53.238;10.394;2022-11-15T14:07:36;13.70;99.90
3310;DHT22;1667;53.238;10.394;2022-11-15T14:12:50;13.70;99.90
3310;DHT22;1667;53.238;10.394;2022-11-15T14:17:48;13.70;99.90
3310;DHT22;1667;53.238;10.394;2022-11-15T14:22:52;13.70;99.90
3310;DHT22;1667;53.238;10.394;2022-11-15T14:28:16;13.70;99.90
3310;DHT22;1667;53.238;10.394;2022-11-15T14:33:22;13.70;99.90
3310;DHT22;1667;53.238;10.394;2022-11-15T14:38:21;13.60;99.90
3310;DHT22;1667;53.238;10.394;2022-11-15T14:43:20;13.60;99.90
3310;DHT22;1667;53.238;10.394;2022-11-15T14:54:18;13.60;99.90
3310;DHT22;1667;53.238;10.394;2022-11-15T14:59:17;13.50;99.90
3310;DHT22;1667;53.238;10.394;2022-11-15T15:04:16;13.50;99.90
3310;DHT22;1667;53.238;10.394;2022-11-15T15:09:14;13.40;99.90
3310;DHT22;1667;53.238;10.394;2022-11-15T15:14:14;13.40;99.90
3310;DHT22;1667;53.238;10.394;2022-11-15T15:19:13;13.30;99.90
3310;DHT22;1667;53.238;10.394;2022-11-15T15:24:13;13.30;99.90
3310;DHT22;1667;53.238;10.394;2022-11-15T15:35:26;13.30;99.90
3310;DHT22;1667;53.238;10.394;2022-11-15T15:40:28;13.20;99.90
3310;DHT22;1667;53.238;10.394;2022-11-15T15:45:26;13.20;99.90
3310;DHT22;1667;53.238;10.394;2022-11-15T15:50:29;13.10;99.90
3310;DHT22;1667;53.238;10.394;2022-11-15T15:55:29;13.10;99.90
3310;DHT22;1667;53.238;10.394;2022-11-15T16:00:28;13.10;99.90
3310;DHT22;1667;53.238;10.394;2022-11-15T16:05:30;13.00;99.90
3310;DHT22;1667;53.238;10.394;2022-11-15T16:10:30;13.00;99.90
3310;DHT22;1667;53.238;10.394;2022-11-15T16:15:30;13.00;99.90
3310;DHT22;1667;53.238;10.394;2022-11-15T16:20:34;13.00;99.90
3310;DHT22;1667;53.238;10.394;2022-11-15T16:25:36;12.90;99.90
3310;DHT22;1667;53.238;10.394;2022-11-15T16:30:35;12.90;99.90
3310;DHT22;1667;53.238;10.394;2022-11-15T16:35:34;12.80;99.90
3310;DHT22;1667;53.238;10.394;2022-11-15T16:40:33;12.80;99.90
3310;DHT22;1667;53.238;10.394;2022-11-15T16:52:27;12.70;99.90
3310;DHT22;1667;53.238;10.394;2022-11-15T16:57:25;12.60;99.90
3310;DHT22;1667;53.238;10.394;2022-11-15T17:02:23;12.70;99.90
3310;DHT22;1667;53.238;10.394;2022-11-15T17:07:21;12.70;99.90
3310;DHT22;1667;53.238;10.394;2022-11-15T17:12:22;12.70;99.90
3310;DHT22;1667;53.238;10.394;2022-11-15T17:17:20;12.70;99.90
3310;DHT22;1667;53.238;10.394;2022-11-15T17:22:18;12.70;99.90
3310;DHT22;1667;53.238;10.394;2022-11-15T17:27:16;12.70;99.90
3310;DHT22;1667;53.238;10.394;2022-11-15T17:32:18;12.70;99.90
3310;DHT22;1667;53.238;10.394;2022-11-15T17:37:16;12.70;99.90
3310;DHT22;1667;53.238;10.394;2022-11-15T17:42:14;12.70;99.90
3310;DHT22;1667;53.238;10.394;2022-11-15T17:47:13;12.70;99.90
3310;DHT22;1667;53.238;10.394;2022-11-15T17:52:12;12.70;99.90
3310;DHT22;1667;53.238;10.394;2022-11-15T18:04:00;12.70;99.90
3310;DHT22;1667;53.238;10.394;2022-11-15T18:09:00;12.70;99.90
3310;DHT22;1667;53.238;10.394;2022-11-15T18:14:00;12.70;99.90
3310;DHT22;1667;53.238;10.394;2022-11-15T18:18:59;12.70;99.90
3310;DHT22;1667;53.238;10.394;2022-11-15T18:24:00;12.70;99.90
3310;DHT22;1667;53.238;10.394;2022-11-15T18:35:59;12.70;99.90
3310;DHT22;1667;53.238;10.394;2022-11-15T18:41:05;12.70;99.90
3310;DHT22;1667;53.238;10.394;2022-11-15T18:46:04;12.80;99.90
3310;DHT22;1667;53.238;10.394;2022-11-15T18:51:04;12.80;99.90
3310;DHT22;1667;53.238;10.394;2022-11-15T18:56:05;12.70;99.90
3310;DHT22;1667;53.238;10.394;2022-11-15T19:01:05;12.80;99.90
3310;DHT22;1667;53.238;10.394;2022-11-15T19:06:05;12.80;99.90
3310;DHT22;1667;53.238;10.394;2022-11-15T19:11:07;12.80;99.90
3310;DHT22;1667;53.238;10.394;2022-11-15T19:16:06;12.80;99.90
3310;DHT22;1667;53.238;10.394;2022-11-15T19:21:06;12.70;99.90
3310;DHT22;1667;53.238;10.394;2022-11-15T19:26:13;12.70;99.90
3310;DHT22;1667;53.238;10.394;2022-11-15T19:31:13;12.70;99.90
3310;DHT22;1667;53.238;10.394;2022-11-15T19:36:12;12.70;99.90
3310;DHT22;1667;53.238;10.394;2022-11-15T19:41:13;12.70;99.90
3310;DHT22;1667;53.238;10.394;2022-11-15T19:46:12;12.70;99.90
3310;DHT22;1667;53.238;10.394;2022-11-15T19:51:12;12.80;99.90
3310;DHT22;1667;53.238;10.394;2022-11-15T19:56:13;12.80;99.90
3310;DHT22;1667;53.238;10.394;2022-11-15T20:01:15;12.90;99.90
3310;DHT22;1667;53.238;10.394;2022-11-15T20:06:16;12.90;99.90
3310;DHT22;1667;53.238;10.394;2022-11-15T20:11:16;12.80;99.90
3310;DHT22;1667;53.238;10.394;2022-11-15T20:16:16;12.80;99.90
3310;DHT22;1667;53.238;10.394;2022-11-15T20:21:15;12.80;99.90
3310;DHT22;1667;53.238;10.394;2022-11-15T20:26:15;12.80;99.90
3310;DHT22;1667;53.238;10.394;2022-11-15T20:31:41;12.90;99.90
3310;DHT22;1667;53.238;10.394;2022-11-15T20:36:40;12.90;99.90
3310;DHT22;1667;53.238;10.394;2022-11-15T20:41:39;12.80;99.90
3310;DHT22;1667;53.238;10.394;2022-11-15T20:46:37;12.80;99.90
3310;DHT22;1667;53.238;10.394;2022-11-15T20:51:35;12.80;99.90
3310;DHT22;1667;53.238;10.394;2022-11-15T20:56:34;12.80;99.90
3310;DHT22;1667;53.238;10.394;2022-11-15T21:01:33;12.80;99.90
3310;DHT22;1667;53.238;10.394;2022-11-15T21:06:31;12.80;99.90
3310;DHT22;1667;53.238;10.394;2022-11-15T21:11:29;12.80;99.90
3310;DHT22;1667;53.238;10.394;2022-11-15T21:16:46;12.80;99.90
3310;DHT22;1667;53.238;10.394;2022-11-15T21:21:44;12.80;99.90
3310;DHT22;1667;53.238;10.394;2022-11-15T21:26:43;12.90;99.90
3310;DHT22;1667;53.238;10.394;2022-11-15T21:31:41;13.00;99.90
3310;DHT22;1667;53.238;10.394;2022-11-15T21:36:40;13.00;99.90
3310;DHT22;1667;53.238;10.394;2022-11-15T21:41:38;12.90;99.90
3310;DHT22;1667;53.238;10.394;2022-11-15T21:46:37;12.80;99.90
3310;DHT22;1667;53.238;10.394;2022-11-15T21:51:35;12.80;99.90
3310;DHT22;1667;53.238;10.394;2022-11-15T21:56:35;12.80;99.90
3310;DHT22;1667;53.238;10.394;2022-11-15T22:01:33;12.70;99.90
3310;DHT22;1667;53.238;10.394;2022-11-15T22:06:48;12.70;99.90
3310;DHT22;1667;53.238;10.394;2022-11-15T22:11:48;12.70;99.90
3310;DHT22;1667;53.238;10.394;2022-11-15T22:16:46;12.70;99.90
3310;DHT22;1667;53.238;10.394;2022-11-15T22:21:44;12.70;99.90
3310;DHT22;1667;53.238;10.394;2022-11-15T22:26:42;12.70;99.90
3310;DHT22;1667;53.238;10.394;2022-11-15T22:31:42;12.70;99.90
3310;DHT22;1667;53.238;10.394;2022-11-15T22:36:40;12.60;99.90
3310;DHT22;1667;53.238;10.394;2022-11-15T22:42:01;12.60;99.90
3310;DHT22;1667;53.238;10.394;2022-11-15T22:47:00;12.50;99.90
3310;DHT22;1667;53.238;10.394;2022-11-15T22:51:59;12.50;99.90
3310;DHT22;1667;53.238;10.394;2022-11-15T22:56:57;12.40;99.90
3310;DHT22;1667;53.238;10.394;2022-11-15T23:01:55;12.30;99.90
3310;DHT22;1667;53.238;10.394;2022-11-15T23:06:55;12.30;99.90
3310;DHT22;1667;53.238;10.394;2022-11-15T23:11:53;12.20;99.90
3310;DHT22;1667;53.238;10.394;2022-11-15T23:17:09;12.20;99.90
3310;DHT22;1667;53.238;10.394;2022-11-15T23:22:09;12.10;99.90
3310;DHT22;1667;53.238;10.394;2022-11-15T23:27:24;12.00;99.90
3310;DHT22;1667;53.238;10.394;2022-11-15T23:32:24;12.00;99.90
3310;DHT22;1667;53.238;10.394;2022-11-15T23:43:35;11.90;99.90
3310;DHT22;1667;53.238;10.394;2022-11-15T23:48:33;11.90;99.90
3310;DHT22;1667;53.238;10.394;2022-11-15T23:53:32;11.90;99.90
3310;DHT22;1667;53.238;10.394;2022-11-15T23:58:30;11.80;99.90
